Terminal Aerodrome Forecast
Issued by NWS Jackson, KY

Home | Current Version | Previous Version | Text Only | Print | Product List | Glossary On
Versions: 1 2 3 4 5 6 7 8 9 10 11 12 13 14 15 16 17 18 19 20 21
247
FTUS43 KJKL 240704 AAB
TAFJKL
TAF AMD
KJKL 240704Z 2407/2506 06005KT P6SM VCSH OVC015
     FM242000 05007KT 5SM -SHRA SCT010 BKN020
     FM242100 05006KT P6SM BKN025=

USA.gov is the U.S. government's official web portal to all federal, state and local government web resources and services.